sensor_id;sensor_type;location;lat;lon;timestamp;P1;durP1;ratioP1;P2;durP2;ratioP2
80115;SDS011;69423;47.608;19.366;2023-08-30T00:00:00;4.17;;;4.17;;
80115;SDS011;69423;47.608;19.366;2023-08-30T00:00:31;4.80;;;4.80;;
80115;SDS011;69423;47.608;19.366;2023-08-30T00:01:02;4.30;;;4.30;;
80115;SDS011;69423;47.608;19.366;2023-08-30T00:01:33;4.63;;;4.63;;
80115;SDS011;69423;47.608;19.366;2023-08-30T00:02:04;4.33;;;4.33;;
80115;SDS011;69423;47.608;19.366;2023-08-30T00:02:35;4.30;;;4.30;;
80115;SDS011;69423;47.608;19.366;2023-08-30T00:03:07;4.60;;;4.60;;
80115;SDS011;69423;47.608;19.366;2023-08-30T00:03:38;4.87;;;4.87;;
80115;SDS011;69423;47.608;19.366;2023-08-30T00:04:09;4.37;;;4.37;;
80115;SDS011;69423;47.608;19.366;2023-08-30T00:04:41;4.73;;;4.73;;
80115;SDS011;69423;47.608;19.366;2023-08-30T00:05:13;4.73;;;4.73;;
80115;SDS011;69423;47.608;19.366;2023-08-30T00:05:44;4.43;;;4.43;;
80115;SDS011;69423;47.608;19.366;2023-08-30T00:06:15;4.07;;;4.07;;
80115;SDS011;69423;47.608;19.366;2023-08-30T00:06:46;4.30;;;4.30;;
80115;SDS011;69423;47.608;19.366;2023-08-30T00:07:17;4.17;;;4.17;;
80115;SDS011;69423;47.608;19.366;2023-08-30T00:07:48;4.30;;;4.30;;
80115;SDS011;69423;47.608;19.366;2023-08-30T00:08:19;4.07;;;4.07;;
80115;SDS011;69423;47.608;19.366;2023-08-30T00:08:50;4.00;;;4.00;;
80115;SDS011;69423;47.608;19.366;2023-08-30T00:09:21;3.50;;;3.50;;
80115;SDS011;69423;47.608;19.366;2023-08-30T00:09:52;3.27;;;3.27;;
80115;SDS011;69423;47.608;19.366;2023-08-30T00:10:23;3.30;;;3.30;;
80115;SDS011;69423;47.608;19.366;2023-08-30T00:10:54;3.23;;;3.23;;
80115;SDS011;69423;47.608;19.366;2023-08-30T00:11:28;3.47;;;3.47;;
80115;SDS011;69423;47.608;19.366;2023-08-30T00:12:00;3.33;;;3.33;;
80115;SDS011;69423;47.608;19.366;2023-08-30T00:12:31;3.27;;;3.27;;
80115;SDS011;69423;47.608;19.366;2023-08-30T00:13:04;3.17;;;3.17;;
80115;SDS011;69423;47.608;19.366;2023-08-30T00:13:35;3.30;;;3.30;;
80115;SDS011;69423;47.608;19.366;2023-08-30T00:14:06;3.40;;;3.40;;
80115;SDS011;69423;47.608;19.366;2023-08-30T00:14:37;3.13;;;3.13;;
80115;SDS011;69423;47.608;19.366;2023-08-30T00:15:08;3.23;;;3.23;;
80115;SDS011;69423;47.608;19.366;2023-08-30T00:15:40;3.07;;;3.07;;
80115;SDS011;69423;47.608;19.366;2023-08-30T00:16:11;3.23;;;3.23;;
80115;SDS011;69423;47.608;19.366;2023-08-30T00:16:43;3.10;;;3.10;;
80115;SDS011;69423;47.608;19.366;2023-08-30T00:17:14;3.07;;;3.07;;
80115;SDS011;69423;47.608;19.366;2023-08-30T00:17:45;3.33;;;3.33;;
80115;SDS011;69423;47.608;19.366;2023-08-30T00:18:16;3.17;;;3.17;;
80115;SDS011;69423;47.608;19.366;2023-08-30T00:18:49;3.17;;;3.17;;
80115;SDS011;69423;47.608;19.366;2023-08-30T00:19:20;3.37;;;3.37;;
80115;SDS011;69423;47.608;19.366;2023-08-30T00:19:51;3.00;;;3.00;;
80115;SDS011;69423;47.608;19.366;2023-08-30T00:20:23;2.80;;;2.80;;
80115;SDS011;69423;47.608;19.366;2023-08-30T00:20:55;3.13;;;3.13;;
80115;SDS011;69423;47.608;19.366;2023-08-30T00:21:27;3.37;;;3.37;;
80115;SDS011;69423;47.608;19.366;2023-08-30T00:21:58;3.00;;;3.00;;
80115;SDS011;69423;47.608;19.366;2023-08-30T00:22:29;2.97;;;2.97;;
80115;SDS011;69423;47.608;19.366;2023-08-30T00:23:01;3.07;;;3.07;;
80115;SDS011;69423;47.608;19.366;2023-08-30T00:23:33;3.23;;;3.23;;
80115;SDS011;69423;47.608;19.366;2023-08-30T00:24:04;2.83;;;2.83;;
80115;SDS011;69423;47.608;19.366;2023-08-30T00:24:36;2.90;;;2.90;;
80115;SDS011;69423;47.608;19.366;2023-08-30T00:25:07;3.20;;;3.20;;
80115;SDS011;69423;47.608;19.366;2023-08-30T00:25:38;3.33;;;3.33;;
80115;SDS011;69423;47.608;19.366;2023-08-30T00:26:09;3.17;;;3.17;;
80115;SDS011;69423;47.608;19.366;2023-08-30T00:26:40;2.93;;;2.93;;
80115;SDS011;69423;47.608;19.366;2023-08-30T00:27:11;3.17;;;3.17;;
80115;SDS011;69423;47.608;19.366;2023-08-30T00:27:42;2.93;;;2.93;;
80115;SDS011;69423;47.608;19.366;2023-08-30T00:28:13;3.27;;;3.27;;
80115;SDS011;69423;47.608;19.366;2023-08-30T00:28:45;3.10;;;3.10;;
80115;SDS011;69423;47.608;19.366;2023-08-30T00:29:16;3.33;;;3.33;;
80115;SDS011;69423;47.608;19.366;2023-08-30T00:29:47;3.00;;;3.00;;
80115;SDS011;69423;47.608;19.366;2023-08-30T00:30:18;3.30;;;3.30;;
80115;SDS011;69423;47.608;19.366;2023-08-30T00:30:52;3.43;;;3.43;;
80115;SDS011;69423;47.608;19.366;2023-08-30T00:31:24;3.27;;;3.27;;
80115;SDS011;69423;47.608;19.366;2023-08-30T00:31:55;3.93;;;3.93;;
80115;SDS011;69423;47.608;19.366;2023-08-30T00:32:26;3.47;;;3.47;;
80115;SDS011;69423;47.608;19.366;2023-08-30T00:32:58;3.37;;;3.37;;
80115;SDS011;69423;47.608;19.366;2023-08-30T00:33:29;3.47;;;3.47;;
80115;SDS011;69423;47.608;19.366;2023-08-30T00:34:00;3.63;;;3.63;;
80115;SDS011;69423;47.608;19.366;2023-08-30T00:34:31;4.33;;;4.33;;
80115;SDS011;69423;47.608;19.366;2023-08-30T00:35:02;5.03;;;5.03;;
80115;SDS011;69423;47.608;19.366;2023-08-30T00:35:33;4.93;;;4.93;;
80115;SDS011;69423;47.608;19.366;2023-08-30T00:36:04;4.70;;;4.70;;
80115;SDS011;69423;47.608;19.366;2023-08-30T00:36:35;4.60;;;4.60;;
80115;SDS011;69423;47.608;19.366;2023-08-30T00:37:06;4.33;;;4.33;;
80115;SDS011;69423;47.608;19.366;2023-08-30T00:37:37;4.10;;;4.10;;
80115;SDS011;69423;47.608;19.366;2023-08-30T00:38:08;3.90;;;3.90;;
80115;SDS011;69423;47.608;19.366;2023-08-30T00:38:39;3.40;;;3.40;;
80115;SDS011;69423;47.608;19.366;2023-08-30T00:39:10;2.87;;;2.87;;
80115;SDS011;69423;47.608;19.366;2023-08-30T00:39:41;2.93;;;2.93;;
80115;SDS011;69423;47.608;19.366;2023-08-30T00:40:12;3.07;;;3.07;;
80115;SDS011;69423;47.608;19.366;2023-08-30T00:40:43;3.33;;;3.33;;
80115;SDS011;69423;47.608;19.366;2023-08-30T00:41:15;3.23;;;3.23;;
80115;SDS011;69423;47.608;19.366;2023-08-30T00:41:46;3.17;;;3.17;;
80115;SDS011;69423;47.608;19.366;2023-08-30T00:42:17;3.10;;;3.10;;
80115;SDS011;69423;47.608;19.366;2023-08-30T00:42:48;3.00;;;3.00;;
80115;SDS011;69423;47.608;19.366;2023-08-30T00:43:19;2.93;;;2.93;;
80115;SDS011;69423;47.608;19.366;2023-08-30T00:43:51;3.03;;;3.03;;
80115;SDS011;69423;47.608;19.366;2023-08-30T00:44:22;2.93;;;2.93;;
80115;SDS011;69423;47.608;19.366;2023-08-30T00:44:53;2.97;;;2.97;;
80115;SDS011;69423;47.608;19.366;2023-08-30T00:45:24;2.80;;;2.80;;
80115;SDS011;69423;47.608;19.366;2023-08-30T00:45:55;3.17;;;3.17;;
80115;SDS011;69423;47.608;19.366;2023-08-30T00:46:27;2.97;;;2.97;;
80115;SDS011;69423;47.608;19.366;2023-08-30T00:47:00;2.80;;;2.80;;
80115;SDS011;69423;47.608;19.366;2023-08-30T00:47:32;2.77;;;2.77;;
80115;SDS011;69423;47.608;19.366;2023-08-30T00:48:05;2.63;;;2.63;;
80115;SDS011;69423;47.608;19.366;2023-08-30T00:48:36;3.27;;;3.27;;
80115;SDS011;69423;47.608;19.366;2023-08-30T00:49:07;3.10;;;3.10;;
80115;SDS011;69423;47.608;19.366;2023-08-30T00:49:38;3.30;;;3.30;;
80115;SDS011;69423;47.608;19.366;2023-08-30T00:50:11;3.17;;;3.17;;
80115;SDS011;69423;47.608;19.366;2023-08-30T00:50:42;3.23;;;3.23;;
80115;SDS011;69423;47.608;19.366;2023-08-30T00:51:14;3.00;;;3.00;;
80115;SDS011;69423;47.608;19.366;2023-08-30T00:51:45;3.47;;;3.47;;
80115;SDS011;69423;47.608;19.366;2023-08-30T00:52:16;3.57;;;3.57;;
80115;SDS011;69423;47.608;19.366;2023-08-30T00:52:48;3.33;;;3.33;;
80115;SDS011;69423;47.608;19.366;2023-08-30T00:53:19;3.30;;;3.30;;
80115;SDS011;69423;47.608;19.366;2023-08-30T00:53:50;3.40;;;3.40;;
80115;SDS011;69423;47.608;19.366;2023-08-30T00:54:21;3.40;;;3.40;;
80115;SDS011;69423;47.608;19.366;2023-08-30T00:54:53;3.80;;;3.80;;
80115;SDS011;69423;47.608;19.366;2023-08-30T00:55:24;3.63;;;3.63;;
80115;SDS011;69423;47.608;19.366;2023-08-30T00:55:55;3.97;;;3.97;;
80115;SDS011;69423;47.608;19.366;2023-08-30T00:56:29;3.57;;;3.57;;
80115;SDS011;69423;47.608;19.366;2023-08-30T00:57:01;3.57;;;3.57;;
80115;SDS011;69423;47.608;19.366;2023-08-30T00:57:35;3.63;;;3.63;;
80115;SDS011;69423;47.608;19.366;2023-08-30T00:58:07;3.63;;;3.63;;
80115;SDS011;69423;47.608;19.366;2023-08-30T00:58:40;4.03;;;4.03;;
80115;SDS011;69423;47.608;19.366;2023-08-30T00:59:11;4.03;;;4.03;;
80115;SDS011;69423;47.608;19.366;2023-08-30T00:59:42;4.40;;;4.40;;
80115;SDS011;69423;47.608;19.366;2023-08-30T01:00:13;4.37;;;4.37;;
80115;SDS011;69423;47.608;19.366;2023-08-30T01:00:44;4.13;;;4.13;;
80115;SDS011;69423;47.608;19.366;2023-08-30T01:01:17;4.33;;;4.33;;
80115;SDS011;69423;47.608;19.366;2023-08-30T01:01:49;4.73;;;4.73;;
80115;SDS011;69423;47.608;19.366;2023-08-30T01:02:20;4.73;;;4.73;;
80115;SDS011;69423;47.608;19.366;2023-08-30T01:02:51;4.33;;;4.33;;
80115;SDS011;69423;47.608;19.366;2023-08-30T01:03:22;4.57;;;4.57;;
80115;SDS011;69423;47.608;19.366;2023-08-30T01:03:53;4.90;;;4.90;;
80115;SDS011;69423;47.608;19.366;2023-08-30T01:04:25;4.57;;;4.57;;
80115;SDS011;69423;47.608;19.366;2023-08-30T01:04:56;4.60;;;4.60;;
80115;SDS011;69423;47.608;19.366;2023-08-30T01:05:27;4.97;;;4.97;;
80115;SDS011;69423;47.608;19.366;2023-08-30T01:05:58;4.97;;;4.97;;
80115;SDS011;69423;47.608;19.366;2023-08-30T01:06:29;4.67;;;4.67;;
80115;SDS011;69423;47.608;19.366;2023-08-30T01:07:00;4.60;;;4.60;;
80115;SDS011;69423;47.608;19.366;2023-08-30T01:07:31;4.97;;;4.97;;
80115;SDS011;69423;47.608;19.366;2023-08-30T01:08:03;4.97;;;4.97;;
80115;SDS011;69423;47.608;19.366;2023-08-30T01:08:35;5.03;;;5.03;;
80115;SDS011;69423;47.608;19.366;2023-08-30T01:09:08;5.37;;;5.37;;
80115;SDS011;69423;47.608;19.366;2023-08-30T01:09:39;5.23;;;5.23;;
80115;SDS011;69423;47.608;19.366;2023-08-30T01:10:10;5.50;;;5.50;;
80115;SDS011;69423;47.608;19.366;2023-08-30T01:11:36;5.77;;;5.77;;
80115;SDS011;69423;47.608;19.366;2023-08-30T01:12:17;5.37;;;5.37;;
80115;SDS011;69423;47.608;19.366;2023-08-30T01:12:53;5.63;;;5.63;;
80115;SDS011;69423;47.608;19.366;2023-08-30T01:13:32;5.50;;;5.50;;
80115;SDS011;69423;47.608;19.366;2023-08-30T01:14:17;5.77;;;5.77;;
80115;SDS011;69423;47.608;19.366;2023-08-30T01:14:56;5.53;;;5.53;;
80115;SDS011;69423;47.608;19.366;2023-08-30T01:15:40;5.93;;;5.93;;
80115;SDS011;69423;47.608;19.366;2023-08-30T01:16:13;5.93;;;5.93;;
80115;SDS011;69423;47.608;19.366;2023-08-30T01:16:47;5.73;;;5.73;;
80115;SDS011;69423;47.608;19.366;2023-08-30T01:17:19;5.80;;;5.80;;
80115;SDS011;69423;47.608;19.366;2023-08-30T01:17:53;5.87;;;5.87;;
80115;SDS011;69423;47.608;19.366;2023-08-30T01:18:28;5.97;;;5.97;;
80115;SDS011;69423;47.608;19.366;2023-08-30T01:19:17;6.47;;;6.47;;
80115;SDS011;69423;47.608;19.366;2023-08-30T01:20:05;6.20;;;6.20;;
80115;SDS011;69423;47.608;19.366;2023-08-30T01:20:47;6.17;;;6.17;;
80115;SDS011;69423;47.608;19.366;2023-08-30T01:21:27;6.43;;;6.43;;
80115;SDS011;69423;47.608;19.366;2023-08-30T01:23:40;6.73;;;6.73;;
80115;SDS011;69423;47.608;19.366;2023-08-30T01:24:23;6.30;;;6.30;;
80115;SDS011;69423;47.608;19.366;2023-08-30T01:26:48;6.23;;;6.23;;
80115;SDS011;69423;47.608;19.366;2023-08-30T01:27:42;6.20;;;6.20;;
80115;SDS011;69423;47.608;19.366;2023-08-30T01:28:19;6.90;;;6.90;;
80115;SDS011;69423;47.608;19.366;2023-08-30T01:28:54;6.80;;;6.80;;
80115;SDS011;69423;47.608;19.366;2023-08-30T01:29:31;7.23;;;7.23;;
80115;SDS011;69423;47.608;19.366;2023-08-30T01:30:05;6.87;;;6.87;;
80115;SDS011;69423;47.608;19.366;2023-08-30T01:30:40;7.10;;;7.10;;
80115;SDS011;69423;47.608;19.366;2023-08-30T01:31:13;6.80;;;6.80;;
80115;SDS011;69423;47.608;19.366;2023-08-30T01:31:46;7.13;;;7.13;;
80115;SDS011;69423;47.608;19.366;2023-08-30T01:32:19;8.00;;;8.00;;
80115;SDS011;69423;47.608;19.366;2023-08-30T01:32:53;7.80;;;7.80;;
80115;SDS011;69423;47.608;19.366;2023-08-30T01:33:26;7.40;;;7.40;;
80115;SDS011;69423;47.608;19.366;2023-08-30T01:34:01;7.50;;;7.50;;
80115;SDS011;69423;47.608;19.366;2023-08-30T01:34:35;7.50;;;7.50;;
80115;SDS011;69423;47.608;19.366;2023-08-30T01:35:08;7.60;;;7.60;;
80115;SDS011;69423;47.608;19.366;2023-08-30T01:35:39;7.47;;;7.47;;
80115;SDS011;69423;47.608;19.366;2023-08-30T01:36:11;7.37;;;7.37;;
80115;SDS011;69423;47.608;19.366;2023-08-30T01:36:43;7.27;;;7.27;;
80115;SDS011;69423;47.608;19.366;2023-08-30T01:37:15;7.33;;;7.33;;
80115;SDS011;69423;47.608;19.366;2023-08-30T01:37:47;7.37;;;7.37;;
80115;SDS011;69423;47.608;19.366;2023-08-30T01:38:20;7.37;;;7.20;;
80115;SDS011;69423;47.608;19.366;2023-08-30T01:38:52;7.67;;;7.67;;
80115;SDS011;69423;47.608;19.366;2023-08-30T01:39:24;7.67;;;7.67;;
80115;SDS011;69423;47.608;19.366;2023-08-30T01:39:57;6.80;;;6.80;;
80115;SDS011;69423;47.608;19.366;2023-08-30T01:40:30;7.17;;;7.17;;
80115;SDS011;69423;47.608;19.366;2023-08-30T01:41:06;7.63;;;7.63;;
80115;SDS011;69423;47.608;19.366;2023-08-30T01:41:37;6.97;;;6.90;;
80115;SDS011;69423;47.608;19.366;2023-08-30T01:42:09;7.50;;;7.43;;
80115;SDS011;69423;47.608;19.366;2023-08-30T01:42:42;7.40;;;7.37;;
80115;SDS011;69423;47.608;19.366;2023-08-30T01:43:15;7.27;;;7.27;;
80115;SDS011;69423;47.608;19.366;2023-08-30T01:43:48;6.77;;;6.77;;
80115;SDS011;69423;47.608;19.366;2023-08-30T01:44:23;7.07;;;7.07;;
80115;SDS011;69423;47.608;19.366;2023-08-30T01:44:55;6.80;;;6.80;;
80115;SDS011;69423;47.608;19.366;2023-08-30T01:45:32;6.97;;;6.97;;
80115;SDS011;69423;47.608;19.366;2023-08-30T01:46:09;7.77;;;7.77;;
80115;SDS011;69423;47.608;19.366;2023-08-30T01:46:41;6.73;;;6.73;;
80115;SDS011;69423;47.608;19.366;2023-08-30T01:47:16;7.13;;;7.13;;
80115;SDS011;69423;47.608;19.366;2023-08-30T01:47:49;6.77;;;6.77;;
80115;SDS011;69423;47.608;19.366;2023-08-30T01:48:23;6.73;;;6.73;;
80115;SDS011;69423;47.608;19.366;2023-08-30T01:48:56;6.90;;;6.90;;
80115;SDS011;69423;47.608;19.366;2023-08-30T01:49:29;7.63;;;7.63;;
80115;SDS011;69423;47.608;19.366;2023-08-30T01:50:05;7.43;;;7.43;;
80115;SDS011;69423;47.608;19.366;2023-08-30T01:50:40;7.33;;;7.33;;
80115;SDS011;69423;47.608;19.366;2023-08-30T01:51:13;7.57;;;7.57;;
80115;SDS011;69423;47.608;19.366;2023-08-30T01:51:47;7.03;;;7.03;;
80115;SDS011;69423;47.608;19.366;2023-08-30T01:52:20;6.87;;;6.87;;
80115;SDS011;69423;47.608;19.366;2023-08-30T01:52:51;6.93;;;6.93;;
80115;SDS011;69423;47.608;19.366;2023-08-30T01:53:23;7.43;;;7.43;;
80115;SDS011;69423;47.608;19.366;2023-08-30T01:53:54;7.07;;;7.07;;
80115;SDS011;69423;47.608;19.366;2023-08-30T01:54:27;7.07;;;7.07;;
80115;SDS011;69423;47.608;19.366;2023-08-30T01:55:00;6.57;;;6.57;;
80115;SDS011;69423;47.608;19.366;2023-08-30T01:55:33;7.07;;;7.07;;
80115;SDS011;69423;47.608;19.366;2023-08-30T01:56:05;7.17;;;7.17;;
80115;SDS011;69423;47.608;19.366;2023-08-30T01:56:36;7.20;;;7.20;;
80115;SDS011;69423;47.608;19.366;2023-08-30T01:57:07;6.80;;;6.80;;
80115;SDS011;69423;47.608;19.366;2023-08-30T01:57:38;6.97;;;6.97;;
80115;SDS011;69423;47.608;19.366;2023-08-30T01:58:09;7.40;;;7.40;;
80115;SDS011;69423;47.608;19.366;2023-08-30T01:58:40;7.63;;;7.63;;
80115;SDS011;69423;47.608;19.366;2023-08-30T01:59:12;7.77;;;7.77;;
80115;SDS011;69423;47.608;19.366;2023-08-30T01:59:43;7.53;;;7.53;;
80115;SDS011;69423;47.608;19.366;2023-08-30T02:00:14;7.13;;;7.13;;
80115;SDS011;69423;47.608;19.366;2023-08-30T02:00:45;7.43;;;7.43;;
80115;SDS011;69423;47.608;19.366;2023-08-30T02:01:17;7.47;;;7.47;;
80115;SDS011;69423;47.608;19.366;2023-08-30T02:01:48;7.20;;;7.20;;
80115;SDS011;69423;47.608;19.366;2023-08-30T02:02:19;6.97;;;6.97;;
80115;SDS011;69423;47.608;19.366;2023-08-30T02:02:50;7.53;;;7.53;;
80115;SDS011;69423;47.608;19.366;2023-08-30T02:03:21;7.07;;;7.07;;
80115;SDS011;69423;47.608;19.366;2023-08-30T02:03:52;7.27;;;7.27;;
80115;SDS011;69423;47.608;19.366;2023-08-30T02:04:23;6.93;;;6.93;;
80115;SDS011;69423;47.608;19.366;2023-08-30T02:04:54;6.33;;;6.33;;
80115;SDS011;69423;47.608;19.366;2023-08-30T02:05:25;6.80;;;6.80;;
80115;SDS011;69423;47.608;19.366;2023-08-30T02:06:06;6.93;;;6.93;;
80115;SDS011;69423;47.608;19.366;2023-08-30T02:06:42;7.10;;;7.10;;
80115;SDS011;69423;47.608;19.366;2023-08-30T02:07:22;7.57;;;7.57;;
80115;SDS011;69423;47.608;19.366;2023-08-30T02:08:33;7.17;;;7.17;;
80115;SDS011;69423;47.608;19.366;2023-08-30T02:09:07;6.83;;;6.83;;
80115;SDS011;69423;47.608;19.366;2023-08-30T02:10:17;7.37;;;7.37;;
80115;SDS011;69423;47.608;19.366;2023-08-30T02:10:56;7.73;;;7.73;;
80115;SDS011;69423;47.608;19.366;2023-08-30T02:11:34;7.27;;;7.27;;
80115;SDS011;69423;47.608;19.366;2023-08-30T02:12:08;7.03;;;7.03;;
80115;SDS011;69423;47.608;19.366;2023-08-30T02:12:48;7.83;;;7.83;;
80115;SDS011;69423;47.608;19.366;2023-08-30T02:13:25;7.70;;;7.70;;
80115;SDS011;69423;47.608;19.366;2023-08-30T02:13:58;8.07;;;8.07;;
80115;SDS011;69423;47.608;19.366;2023-08-30T02:14:31;7.83;;;7.83;;
80115;SDS011;69423;47.608;19.366;2023-08-30T02:15:04;8.40;;;8.40;;
80115;SDS011;69423;47.608;19.366;2023-08-30T02:15:39;8.23;;;8.23;;
80115;SDS011;69423;47.608;19.366;2023-08-30T02:16:13;8.23;;;8.20;;
80115;SDS011;69423;47.608;19.366;2023-08-30T02:16:47;8.23;;;8.17;;
80115;SDS011;69423;47.608;19.366;2023-08-30T02:17:19;8.70;;;8.33;;
80115;SDS011;69423;47.608;19.366;2023-08-30T02:17:50;9.30;;;8.77;;
80115;SDS011;69423;47.608;19.366;2023-08-30T02:18:22;8.00;;;7.90;;
80115;SDS011;69423;47.608;19.366;2023-08-30T02:18:54;8.03;;;8.03;;
80115;SDS011;69423;47.608;19.366;2023-08-30T02:19:26;8.33;;;8.33;;
80115;SDS011;69423;47.608;19.366;2023-08-30T02:19:57;8.67;;;8.67;;
80115;SDS011;69423;47.608;19.366;2023-08-30T02:20:28;8.67;;;8.67;;
80115;SDS011;69423;47.608;19.366;2023-08-30T02:20:59;8.13;;;8.13;;
80115;SDS011;69423;47.608;19.366;2023-08-30T02:21:31;8.00;;;7.97;;
80115;SDS011;69423;47.608;19.366;2023-08-30T02:22:02;8.27;;;8.23;;
80115;SDS011;69423;47.608;19.366;2023-08-30T02:22:33;7.90;;;7.90;;
80115;SDS011;69423;47.608;19.366;2023-08-30T02:23:05;7.93;;;7.93;;
80115;SDS011;69423;47.608;19.366;2023-08-30T02:23:36;7.83;;;7.83;;
80115;SDS011;69423;47.608;19.366;2023-08-30T02:24:07;7.93;;;7.93;;
80115;SDS011;69423;47.608;19.366;2023-08-30T02:24:39;8.50;;;8.50;;
80115;SDS011;69423;47.608;19.366;2023-08-30T02:25:10;8.93;;;8.93;;
80115;SDS011;69423;47.608;19.366;2023-08-30T02:25:41;8.60;;;8.60;;
80115;SDS011;69423;47.608;19.366;2023-08-30T02:26:12;8.53;;;8.53;;
80115;SDS011;69423;47.608;19.366;2023-08-30T02:26:43;8.37;;;8.37;;
80115;SDS011;69423;47.608;19.366;2023-08-30T02:27:14;8.60;;;8.60;;
80115;SDS011;69423;47.608;19.366;2023-08-30T02:27:45;8.37;;;8.37;;
80115;SDS011;69423;47.608;19.366;2023-08-30T02:28:16;8.30;;;8.30;;
80115;SDS011;69423;47.608;19.366;2023-08-30T02:28:47;8.37;;;8.37;;
80115;SDS011;69423;47.608;19.366;2023-08-30T02:29:18;7.93;;;7.93;;
80115;SDS011;69423;47.608;19.366;2023-08-30T02:29:49;8.57;;;8.57;;
80115;SDS011;69423;47.608;19.366;2023-08-30T02:30:20;8.40;;;8.40;;
80115;SDS011;69423;47.608;19.366;2023-08-30T02:30:52;8.67;;;8.67;;
80115;SDS011;69423;47.608;19.366;2023-08-30T02:31:24;8.50;;;8.50;;
80115;SDS011;69423;47.608;19.366;2023-08-30T02:31:55;8.30;;;8.30;;
80115;SDS011;69423;47.608;19.366;2023-08-30T02:32:26;8.33;;;8.33;;
80115;SDS011;69423;47.608;19.366;2023-08-30T02:32:57;8.10;;;8.10;;
80115;SDS011;69423;47.608;19.366;2023-08-30T02:33:28;8.13;;;8.13;;
80115;SDS011;69423;47.608;19.366;2023-08-30T02:33:59;8.73;;;8.73;;
80115;SDS011;69423;47.608;19.366;2023-08-30T02:34:30;8.43;;;8.43;;
80115;SDS011;69423;47.608;19.366;2023-08-30T02:35:02;8.07;;;8.03;;
80115;SDS011;69423;47.608;19.366;2023-08-30T02:35:33;8.37;;;8.33;;
80115;SDS011;69423;47.608;19.366;2023-08-30T02:36:04;8.70;;;8.50;;
80115;SDS011;69423;47.608;19.366;2023-08-30T02:36:36;9.03;;;8.87;;
80115;SDS011;69423;47.608;19.366;2023-08-30T02:37:07;9.10;;;9.10;;
80115;SDS011;69423;47.608;19.366;2023-08-30T02:37:38;8.37;;;8.37;;
80115;SDS011;69423;47.608;19.366;2023-08-30T02:38:10;9.00;;;9.00;;
80115;SDS011;69423;47.608;19.366;2023-08-30T02:38:41;8.63;;;8.63;;
80115;SDS011;69423;47.608;19.366;2023-08-30T02:39:14;8.23;;;8.23;;
80115;SDS011;69423;47.608;19.366;2023-08-30T02:39:46;7.90;;;7.90;;
80115;SDS011;69423;47.608;19.366;2023-08-30T02:40:17;7.93;;;7.93;;
80115;SDS011;69423;47.608;19.366;2023-08-30T02:40:48;8.60;;;8.60;;
80115;SDS011;69423;47.608;19.366;2023-08-30T02:41:19;8.10;;;8.07;;
80115;SDS011;69423;47.608;19.366;2023-08-30T02:41:50;8.03;;;8.03;;
80115;SDS011;69423;47.608;19.366;2023-08-30T02:42:21;8.07;;;8.07;;
80115;SDS011;69423;47.608;19.366;2023-08-30T02:42:52;7.97;;;7.97;;
80115;SDS011;69423;47.608;19.366;2023-08-30T02:43:23;8.60;;;8.60;;
80115;SDS011;69423;47.608;19.366;2023-08-30T02:43:54;7.93;;;7.80;;
80115;SDS011;69423;47.608;19.366;2023-08-30T02:44:25;7.90;;;7.80;;
80115;SDS011;69423;47.608;19.366;2023-08-30T02:44:56;7.67;;;7.67;;
80115;SDS011;69423;47.608;19.366;2023-08-30T02:45:27;7.87;;;7.87;;
80115;SDS011;69423;47.608;19.366;2023-08-30T02:45:58;7.73;;;7.73;;
80115;SDS011;69423;47.608;19.366;2023-08-30T02:46:31;7.83;;;7.83;;
80115;SDS011;69423;47.608;19.366;2023-08-30T02:47:02;7.80;;;7.80;;
80115;SDS011;69423;47.608;19.366;2023-08-30T02:47:33;7.70;;;7.70;;
80115;SDS011;69423;47.608;19.366;2023-08-30T02:48:05;7.97;;;7.97;;
80115;SDS011;69423;47.608;19.366;2023-08-30T02:48:36;8.17;;;8.17;;
80115;SDS011;69423;47.608;19.366;2023-08-30T02:49:07;7.70;;;7.60;;
80115;SDS011;69423;47.608;19.366;2023-08-30T02:49:39;7.47;;;7.43;;
80115;SDS011;69423;47.608;19.366;2023-08-30T02:50:10;7.30;;;7.30;;
80115;SDS011;69423;47.608;19.366;2023-08-30T02:50:41;8.00;;;8.00;;
80115;SDS011;69423;47.608;19.366;2023-08-30T02:51:12;7.73;;;7.73;;
80115;SDS011;69423;47.608;19.366;2023-08-30T02:51:43;7.87;;;7.87;;
80115;SDS011;69423;47.608;19.366;2023-08-30T02:52:14;7.70;;;7.70;;
80115;SDS011;69423;47.608;19.366;2023-08-30T02:52:47;7.50;;;7.50;;
80115;SDS011;69423;47.608;19.366;2023-08-30T02:53:18;7.90;;;7.90;;
80115;SDS011;69423;47.608;19.366;2023-08-30T02:53:49;8.00;;;8.00;;
80115;SDS011;69423;47.608;19.366;2023-08-30T02:54:20;7.70;;;7.70;;
80115;SDS011;69423;47.608;19.366;2023-08-30T02:54:52;7.53;;;7.53;;
80115;SDS011;69423;47.608;19.366;2023-08-30T02:55:24;7.83;;;7.83;;
80115;SDS011;69423;47.608;19.366;2023-08-30T02:55:55;7.73;;;7.73;;
80115;SDS011;69423;47.608;19.366;2023-08-30T02:56:26;7.30;;;7.30;;
80115;SDS011;69423;47.608;19.366;2023-08-30T02:56:57;7.77;;;7.77;;
80115;SDS011;69423;47.608;19.366;2023-08-30T02:57:28;7.87;;;7.87;;
80115;SDS011;69423;47.608;19.366;2023-08-30T02:57:59;7.00;;;7.00;;
80115;SDS011;69423;47.608;19.366;2023-08-30T02:58:30;6.63;;;6.63;;
80115;SDS011;69423;47.608;19.366;2023-08-30T02:59:01;6.93;;;6.93;;
80115;SDS011;69423;47.608;19.366;2023-08-30T02:59:32;7.43;;;7.43;;
80115;SDS011;69423;47.608;19.366;2023-08-30T03:00:03;7.13;;;7.13;;
80115;SDS011;69423;47.608;19.366;2023-08-30T03:00:36;7.40;;;7.40;;
80115;SDS011;69423;47.608;19.366;2023-08-30T03:01:07;7.23;;;7.23;;
80115;SDS011;69423;47.608;19.366;2023-08-30T03:01:38;7.50;;;7.50;;
80115;SDS011;69423;47.608;19.366;2023-08-30T03:02:09;7.60;;;7.60;;
80115;SDS011;69423;47.608;19.366;2023-08-30T03:02:40;7.63;;;7.63;;
80115;SDS011;69423;47.608;19.366;2023-08-30T03:03:11;7.13;;;7.13;;
80115;SDS011;69423;47.608;19.366;2023-08-30T03:03:42;7.20;;;7.20;;
80115;SDS011;69423;47.608;19.366;2023-08-30T03:04:13;6.77;;;6.77;;
80115;SDS011;69423;47.608;19.366;2023-08-30T03:04:44;6.73;;;6.73;;
80115;SDS011;69423;47.608;19.366;2023-08-30T03:05:16;6.93;;;6.93;;
80115;SDS011;69423;47.608;19.366;2023-08-30T03:05:48;6.83;;;6.83;;
80115;SDS011;69423;47.608;19.366;2023-08-30T03:06:19;6.40;;;6.40;;
80115;SDS011;69423;47.608;19.366;2023-08-30T03:06:50;7.07;;;7.07;;
80115;SDS011;69423;47.608;19.366;2023-08-30T03:07:21;7.80;;;7.80;;
80115;SDS011;69423;47.608;19.366;2023-08-30T03:07:52;7.57;;;7.57;;
80115;SDS011;69423;47.608;19.366;2023-08-30T03:08:24;7.47;;;7.47;;
80115;SDS011;69423;47.608;19.366;2023-08-30T03:08:55;7.43;;;7.40;;
80115;SDS011;69423;47.608;19.366;2023-08-30T03:09:26;7.60;;;7.53;;
80115;SDS011;69423;47.608;19.366;2023-08-30T03:09:57;6.87;;;6.87;;
80115;SDS011;69423;47.608;19.366;2023-08-30T03:10:28;7.37;;;7.37;;
80115;SDS011;69423;47.608;19.366;2023-08-30T03:11:11;7.37;;;7.37;;
80115;SDS011;69423;47.608;19.366;2023-08-30T03:11:44;6.97;;;6.97;;
80115;SDS011;69423;47.608;19.366;2023-08-30T03:12:15;7.20;;;7.20;;
80115;SDS011;69423;47.608;19.366;2023-08-30T03:12:46;6.63;;;6.63;;
80115;SDS011;69423;47.608;19.366;2023-08-30T03:13:17;6.63;;;6.63;;
80115;SDS011;69423;47.608;19.366;2023-08-30T03:13:48;7.40;;;7.40;;
80115;SDS011;69423;47.608;19.366;2023-08-30T03:14:19;7.07;;;7.07;;
80115;SDS011;69423;47.608;19.366;2023-08-30T03:14:50;6.40;;;6.40;;
80115;SDS011;69423;47.608;19.366;2023-08-30T03:15:21;6.23;;;6.23;;
80115;SDS011;69423;47.608;19.366;2023-08-30T03:15:52;6.90;;;6.90;;
80115;SDS011;69423;47.608;19.366;2023-08-30T03:16:23;7.10;;;7.10;;
80115;SDS011;69423;47.608;19.366;2023-08-30T03:16:54;7.07;;;7.07;;